Time;durP1;ratioP1;P1;durP2;ratioP2;P2;SDS_P1;SDS_P2;PMS_P1;PMS_P2;Temp;Humidity;BMP_temperature;BMP_pressure;BME280_temperature;BME280_humidity;BME280_pressure;Samples;Min_cycle;Max_cycle;Signal;HPM_P1;HPM_P2
2022/08/16 00:00:27;;;;;;;7.67;5.67;;;20.20;99.90;;;;;;4937190;29;20943;-92
2022/08/16 00:02:55;;;;;;;6.77;5.87;;;20.10;99.90;;;;;;4937455;29;20499;-92
2022/08/16 00:05:23;;;;;;;8.23;7.00;;;20.10;99.90;;;;;;4937138;29;20433;-93
2022/08/16 00:07:49;;;;;;;9.37;6.20;;;20.00;99.90;;;;;;4937722;29;20423;-92
2022/08/16 00:10:17;;;;;;;7.37;5.80;;;20.00;99.90;;;;;;4940912;29;20500;-91
2022/08/16 00:12:43;;;;;;;8.50;7.17;;;20.00;99.90;;;;;;4938242;29;20419;-91
2022/08/16 00:15:17;;;;;;;7.23;6.00;;;20.00;99.90;;;;;;4938804;29;20469;-92
2022/08/16 00:17:43;;;;;;;7.57;6.10;;;20.00;99.90;;;;;;4937341;29;20456;-90
2022/08/16 00:20:09;;;;;;;7.47;5.83;;;20.00;99.90;;;;;;4936530;29;20430;-90
2022/08/16 00:22:37;;;;;;;7.27;6.33;;;20.10;99.90;;;;;;4936917;29;20459;-92
2022/08/16 00:25:05;;;;;;;6.10;5.50;;;20.00;99.90;;;;;;4938456;29;20421;-92
2022/08/16 00:27:31;;;;;;;6.23;5.23;;;20.00;99.90;;;;;;4936781;29;20895;-92
2022/08/16 00:29:56;;;;;;;9.80;6.47;;;20.10;99.90;;;;;;4936128;29;20499;-91
2022/08/16 00:32:23;;;;;;;7.93;6.10;;;20.10;99.90;;;;;;4937534;29;20182;-91
2022/08/16 00:34:49;;;;;;;6.57;5.23;;;20.10;99.90;;;;;;4938310;29;20182;-91
2022/08/16 00:37:16;;;;;;;6.77;5.67;;;20.20;99.90;;;;;;4936536;29;20477;-92
2022/08/16 00:39:41;;;;;;;8.37;5.70;;;20.10;99.90;;;;;;4936711;29;20410;-94
2022/08/16 00:42:07;;;;;;;7.30;5.63;;;20.20;99.90;;;;;;4936753;29;20961;-93
2022/08/16 00:44:36;;;;;;;6.77;5.73;;;20.20;99.90;;;;;;4936696;29;20174;-90
2022/08/16 00:47:05;;;;;;;6.57;5.90;;;20.10;99.90;;;;;;4938374;29;20324;-90
2022/08/16 00:49:33;;;;;;;5.87;4.50;;;20.10;99.90;;;;;;4940249;29;20462;-91
2022/08/16 00:51:58;;;;;;;7.47;5.70;;;20.10;99.90;;;;;;4938460;29;20439;-91
2022/08/16 00:54:30;;;;;;;6.57;5.87;;;20.10;99.90;;;;;;4926328;29;20425;-90
2022/08/16 00:56:57;;;;;;;8.33;7.27;;;20.20;99.90;;;;;;4925146;29;20182;-90
2022/08/16 00:59:26;;;;;;;8.60;5.93;;;20.20;99.90;;;;;;4936874;29;20445;-93
2022/08/16 01:01:53;;;;;;;7.93;5.53;;;20.20;99.90;;;;;;4935828;29;20438;-92
2022/08/16 01:04:21;;;;;;;6.80;6.00;;;20.20;99.90;;;;;;4936873;29;20956;-93
2022/08/16 01:06:48;;;;;;;6.53;5.90;;;20.20;99.90;;;;;;4935855;29;20947;-91
2022/08/16 01:09:14;;;;;;;5.07;4.50;;;20.20;99.90;;;;;;4939852;29;20430;-93
2022/08/16 01:11:40;;;;;;;6.27;5.33;;;20.10;99.90;;;;;;4939686;29;20849;-92
2022/08/16 01:14:21;;;;;;;5.43;4.80;;;20.10;99.90;;;;;;4937814;29;20237;-92
2022/08/16 01:16:48;;;;;;;6.77;5.27;;;20.10;99.90;;;;;;4937820;29;20181;-91
2022/08/16 01:19:26;;;;;;;10.43;7.20;;;20.10;99.90;;;;;;4935684;29;20591;-92
2022/08/16 01:21:59;;;;;;;6.30;5.30;;;20.00;99.90;;;;;;4935088;29;20796;-92
2022/08/16 01:24:40;;;;;;;6.13;5.37;;;20.00;99.90;;;;;;4935549;29;20454;-94
2022/08/16 01:27:28;;;;;;;6.33;5.60;;;20.00;99.90;;;;;;4937551;29;21006;-93
2022/08/16 01:30:06;;;;;;;6.30;5.70;;;20.00;99.90;;;;;;4934964;29;20473;-91
2022/08/16 01:32:34;;;;;;;6.33;5.67;;;20.10;99.90;;;;;;4938668;29;20445;-92
2022/08/16 01:35:05;;;;;;;7.23;5.13;;;20.00;99.90;;;;;;4938888;29;20464;-94
2022/08/16 01:37:38;;;;;;;6.77;5.13;;;19.90;99.90;;;;;;4938935;29;20475;-93
2022/08/16 01:40:06;;;;;;;6.87;5.90;;;19.90;99.90;;;;;;4939263;29;20426;-93
2022/08/16 01:42:32;;;;;;;6.23;5.63;;;19.90;99.90;;;;;;4939651;29;20412;-93
2022/08/16 01:44:57;;;;;;;12.20;7.17;;;19.90;99.90;;;;;;4939661;29;20427;-94
2022/08/16 01:47:23;;;;;;;8.37;5.90;;;19.80;99.90;;;;;;4939253;29;20476;-94
2022/08/16 01:49:48;;;;;;;8.40;6.40;;;19.90;99.90;;;;;;4938561;29;20217;-93
2022/08/16 01:52:17;;;;;;;6.60;5.50;;;19.80;99.90;;;;;;4938917;29;20173;-91
2022/08/16 01:54:42;;;;;;;7.37;5.97;;;19.80;99.90;;;;;;4938746;29;20328;-93
2022/08/16 01:57:08;;;;;;;8.87;7.17;;;19.80;99.90;;;;;;4938411;29;20898;-93
2022/08/16 01:59:36;;;;;;;7.27;5.63;;;19.80;99.90;;;;;;4939128;29;20205;-93
2022/08/16 02:02:03;;;;;;;8.40;6.67;;;19.80;99.90;;;;;;4941436;29;20425;-92
2022/08/16 02:04:31;;;;;;;6.97;6.27;;;19.80;99.90;;;;;;4942644;29;20512;-93
2022/08/16 02:06:58;;;;;;;7.63;6.23;;;19.90;99.90;;;;;;4940266;29;20508;-92
2022/08/16 02:09:24;;;;;;;7.70;5.90;;;19.90;99.90;;;;;;4927778;29;20492;-90
2022/08/16 02:11:54;;;;;;;6.73;6.03;;;19.80;99.90;;;;;;4904112;29;20441;-91
2022/08/16 02:14:21;;;;;;;8.20;7.40;;;19.80;99.90;;;;;;4902781;29;20522;-91
2022/08/16 02:16:48;;;;;;;6.53;5.80;;;19.80;99.90;;;;;;4903634;29;20950;-91
2022/08/16 02:19:17;;;;;;;6.67;5.50;;;19.80;99.90;;;;;;4904917;29;20454;-90
2022/08/16 02:21:50;;;;;;;7.97;6.57;;;19.90;99.90;;;;;;4903259;29;20437;-92
2022/08/16 02:24:16;;;;;;;8.27;7.07;;;19.80;99.90;;;;;;4904014;29;20434;-92
2022/08/16 02:26:41;;;;;;;8.30;6.37;;;19.80;99.90;;;;;;4903470;29;20415;-91
2022/08/16 02:29:07;;;;;;;7.00;6.30;;;19.80;99.90;;;;;;4904032;29;20178;-92
2022/08/16 02:31:32;;;;;;;8.30;6.07;;;19.80;99.90;;;;;;4903111;29;20254;-90
2022/08/16 02:33:58;;;;;;;7.47;5.90;;;19.70;99.90;;;;;;4920881;29;20202;-91
2022/08/16 02:36:23;;;;;;;6.50;5.60;;;19.70;99.90;;;;;;4901272;29;20261;-90
2022/08/16 02:38:49;;;;;;;8.20;6.37;;;19.70;99.90;;;;;;4899250;29;20172;-93
2022/08/16 02:41:14;;;;;;;7.80;6.63;;;19.80;99.90;;;;;;4900396;29;20259;-92
2022/08/16 02:43:40;;;;;;;7.27;5.97;;;19.80;99.90;;;;;;4900477;29;20185;-91
2022/08/16 02:46:07;;;;;;;6.07;5.47;;;19.80;99.90;;;;;;4900178;29;20680;-90
2022/08/16 02:48:32;;;;;;;8.27;6.77;;;19.80;99.90;;;;;;4915371;29;20179;-89
2022/08/16 02:51:00;;;;;;;9.10;6.67;;;19.80;99.90;;;;;;4900402;29;20902;-90
2022/08/16 02:53:26;;;;;;;6.90;6.20;;;19.80;99.90;;;;;;4900500;29;20259;-91
2022/08/16 02:55:52;;;;;;;7.33;6.23;;;19.80;99.90;;;;;;4899706;29;20448;-93
2022/08/16 02:58:21;;;;;;;8.30;5.30;;;19.80;99.90;;;;;;4899117;29;20275;-93
2022/08/16 03:00:47;;;;;;;6.60;5.57;;;19.80;99.90;;;;;;4915190;29;20183;-95
2022/08/16 03:03:12;;;;;;;7.30;6.10;;;19.70;99.90;;;;;;4899488;29;20433;-94
2022/08/16 03:05:38;;;;;;;8.03;6.90;;;19.70;99.90;;;;;;4899505;29;20231;-93
2022/08/16 03:08:03;;;;;;;7.40;6.10;;;19.70;99.90;;;;;;4899612;29;20311;-94
2022/08/16 03:10:29;;;;;;;6.70;5.97;;;19.70;99.90;;;;;;4899192;29;20213;-95
2022/08/16 03:12:55;;;;;;;8.57;7.57;;;19.80;99.90;;;;;;4898902;29;20239;-93
2022/08/16 03:15:20;;;;;;;6.23;5.27;;;19.70;99.90;;;;;;4899285;29;20250;-93
2022/08/16 03:17:46;;;;;;;9.30;7.13;;;19.70;99.90;;;;;;4899511;29;20672;-93
2022/08/16 03:20:16;;;;;;;7.40;6.40;;;19.70;99.90;;;;;;4899313;29;20183;-92
2022/08/16 03:22:42;;;;;;;7.77;6.50;;;19.60;99.90;;;;;;4900274;29;20202;-92
2022/08/16 03:25:11;;;;;;;11.33;7.50;;;19.60;99.90;;;;;;4920345;29;20425;-92
2022/08/16 03:27:37;;;;;;;8.17;6.30;;;19.60;99.90;;;;;;4902375;29;20424;-93
2022/08/16 03:30:12;;;;;;;11.50;7.83;;;19.50;99.90;;;;;;4917859;29;20465;-92
2022/08/16 03:32:38;;;;;;;6.57;5.27;;;19.50;99.90;;;;;;4901985;29;20425;-93
2022/08/16 03:35:04;;;;;;;9.13;7.20;;;19.60;99.90;;;;;;4901664;29;20430;-91
2022/08/16 03:37:30;;;;;;;7.73;6.93;;;19.60;99.90;;;;;;4915363;29;20227;-92
2022/08/16 03:39:55;;;;;;;8.60;7.77;;;19.60;99.90;;;;;;4899426;29;20914;-92
2022/08/16 03:42:21;;;;;;;10.87;8.20;;;19.50;99.90;;;;;;4898903;29;20194;-93
2022/08/16 03:44:47;;;;;;;7.23;6.20;;;19.50;99.90;;;;;;4898703;29;20535;-93
2022/08/16 03:47:13;;;;;;;7.37;6.10;;;19.50;99.90;;;;;;4898776;29;20434;-93
2022/08/16 03:49:39;;;;;;;9.80;7.40;;;19.50;99.90;;;;;;4913990;29;20208;-92
2022/08/16 03:52:06;;;;;;;9.17;8.37;;;19.50;99.90;;;;;;4898647;29;20428;-93
2022/08/16 03:54:32;;;;;;;6.67;5.90;;;19.50;99.90;;;;;;4914515;29;20419;-94
2022/08/16 03:56:57;;;;;;;7.53;6.83;;;19.50;99.90;;;;;;4898525;29;20463;-93
2022/08/16 03:59:23;;;;;;;9.43;8.40;;;19.40;99.90;;;;;;4898856;29;20419;-92
2022/08/16 04:01:49;;;;;;;11.07;7.30;;;19.50;99.90;;;;;;4914320;29;20183;-91
2022/08/16 04:04:14;;;;;;;7.90;6.97;;;19.50;99.90;;;;;;4899042;29;20206;-93
2022/08/16 04:06:40;;;;;;;6.97;5.70;;;19.40;99.90;;;;;;4898596;29;20236;-92
2022/08/16 04:09:05;;;;;;;7.40;6.60;;;19.40;99.90;;;;;;4898658;29;20176;-90
2022/08/16 04:11:31;;;;;;;7.97;7.03;;;19.30;99.90;;;;;;4898641;29;20625;-93
2022/08/16 04:13:56;;;;;;;8.20;7.17;;;19.30;99.90;;;;;;4898396;29;20217;-91
2022/08/16 04:16:22;;;;;;;9.60;8.60;;;19.30;99.90;;;;;;4898659;29;20177;-91
2022/08/16 04:18:48;;;;;;;7.43;6.40;;;19.30;99.90;;;;;;4898627;29;20531;-91
2022/08/16 04:21:13;;;;;;;7.93;6.97;;;19.30;99.90;;;;;;4899363;29;20177;-93
2022/08/16 04:23:40;;;;;;;7.97;7.17;;;19.30;99.90;;;;;;4899717;29;20544;-89
2022/08/16 04:26:06;;;;;;;9.10;7.43;;;19.40;99.90;;;;;;4899703;29;20676;-90
2022/08/16 04:28:32;;;;;;;10.33;8.00;;;19.40;99.90;;;;;;4899181;29;20856;-92
2022/08/16 04:30:58;;;;;;;8.73;7.80;;;19.40;99.90;;;;;;4915469;29;20473;-91
2022/08/16 04:33:24;;;;;;;8.67;7.50;;;19.40;99.90;;;;;;4905724;29;20483;-90
2022/08/16 04:35:50;;;;;;;12.80;9.63;;;19.50;99.90;;;;;;4913577;29;20230;-90
2022/08/16 04:38:15;;;;;;;10.33;8.37;;;19.40;99.90;;;;;;4915554;29;20485;-90
2022/08/16 04:40:41;;;;;;;9.73;8.73;;;19.40;99.90;;;;;;4899058;29;20435;-90
2022/08/16 04:43:07;;;;;;;9.33;7.47;;;19.40;99.90;;;;;;4899043;29;20175;-91
2022/08/16 04:45:32;;;;;;;10.83;7.97;;;19.40;99.90;;;;;;4899159;29;20185;-90
2022/08/16 04:47:58;;;;;;;8.60;7.60;;;19.40;99.90;;;;;;4899001;29;20249;-91
2022/08/16 04:50:29;;;;;;;9.40;8.40;;;19.50;99.90;;;;;;4897722;29;20234;-90
2022/08/16 04:52:55;;;;;;;9.23;7.50;;;19.40;99.90;;;;;;4897743;29;20422;-93
2022/08/16 04:55:23;;;;;;;10.73;7.77;;;19.40;99.90;;;;;;4898296;29;20498;-91
2022/08/16 04:57:51;;;;;;;8.97;8.10;;;19.40;99.90;;;;;;4913503;29;20415;-90
2022/08/16 05:00:20;;;;;;;9.37;8.30;;;19.40;99.90;;;;;;4897810;29;20967;-91
2022/08/16 05:02:48;;;;;;;8.97;7.47;;;19.40;99.90;;;;;;4916859;29;20423;-91
2022/08/16 05:05:14;;;;;;;8.20;7.27;;;19.50;99.90;;;;;;4917009;29;20472;-91
2022/08/16 05:07:39;;;;;;;8.10;6.87;;;19.50;99.90;;;;;;4902437;29;20451;-89
2022/08/16 05:10:07;;;;;;;9.87;7.80;;;19.50;99.90;;;;;;4900953;29;20238;-90
2022/08/16 05:12:34;;;;;;;12.00;9.60;;;19.40;99.90;;;;;;4916630;29;20430;-89
2022/08/16 05:15:00;;;;;;;11.20;8.67;;;19.50;99.90;;;;;;4916958;29;20438;-92
2022/08/16 05:17:26;;;;;;;10.43;9.33;;;19.50;99.90;;;;;;4902124;29;20424;-91
2022/08/16 05:19:51;;;;;;;8.43;7.60;;;19.50;99.90;;;;;;4900644;29;20419;-89
2022/08/16 05:22:17;;;;;;;9.77;8.13;;;19.60;99.90;;;;;;4900709;29;20178;-90
2022/08/16 05:24:43;;;;;;;10.30;9.03;;;19.60;99.90;;;;;;4900663;29;20186;-91
2022/08/16 05:27:09;;;;;;;8.43;7.43;;;19.70;99.90;;;;;;4900729;29;20210;-91
2022/08/16 05:29:34;;;;;;;10.47;8.50;;;19.80;99.90;;;;;;4911142;29;20214;-91
2022/08/16 05:32:00;;;;;;;12.43;9.43;;;19.80;99.90;;;;;;4922906;29;20173;-91
2022/08/16 05:34:27;;;;;;;11.57;9.87;;;19.80;99.90;;;;;;4924865;29;20169;-91
2022/08/16 05:36:56;;;;;;;13.00;9.20;;;19.80;99.90;;;;;;4940192;29;20294;-89
2022/08/16 05:39:22;;;;;;;12.47;10.20;;;19.90;99.90;;;;;;4910034;29;20446;-90
2022/08/16 05:41:49;;;;;;;12.53;10.70;;;19.90;99.90;;;;;;4916162;29;20424;-90
2022/08/16 05:44:16;;;;;;;12.77;9.33;;;20.00;99.90;;;;;;4916213;29;20566;-91
2022/08/16 05:46:43;;;;;;;12.30;10.80;;;20.10;99.90;;;;;;4916763;29;20435;-91
2022/08/16 05:49:12;;;;;;;15.00;10.43;;;20.10;99.90;;;;;;4901112;29;20489;-92
2022/08/16 05:51:38;;;;;;;14.30;11.47;;;20.10;99.90;;;;;;4916498;29;20500;-91
2022/08/16 05:54:04;;;;;;;12.57;9.50;;;20.20;99.90;;;;;;4916313;29;20416;-92
2022/08/16 05:56:29;;;;;;;14.50;11.27;;;20.30;99.90;;;;;;4900133;29;20429;-91
2022/08/16 05:58:56;;;;;;;11.57;10.43;;;20.40;99.90;;;;;;4900504;29;20183;-91
2022/08/16 06:01:21;;;;;;;14.83;10.87;;;20.60;99.90;;;;;;4900447;29;20239;-91
2022/08/16 06:03:47;;;;;;;14.00;10.40;;;21.10;99.90;;;;;;4901789;29;20421;-91
2022/08/16 06:06:12;;;;;;;10.77;9.67;;;21.10;99.90;;;;;;4900686;29;20207;-93
2022/08/16 06:08:38;;;;;;;12.73;11.37;;;21.80;99.90;;;;;;4900453;29;20220;-91
2022/08/16 06:11:04;;;;;;;13.10;11.10;;;22.50;99.90;;;;;;4902814;29;20232;-86
2022/08/16 06:13:30;;;;;;;11.63;8.87;;;22.40;99.90;;;;;;4903176;29;20671;-87
2022/08/16 06:15:55;;;;;;;11.03;9.80;;;23.20;99.90;;;;;;4904022;29;20646;-87
2022/08/16 06:18:24;;;;;;;11.57;10.30;;;24.20;99.90;;;;;;4902577;29;20422;-87
2022/08/16 06:20:50;;;;;;;10.23;9.17;;;24.80;1.00;;;;;;4922166;29;20200;-89
2022/08/16 06:23:16;;;;;;;9.27;8.37;;;25.40;99.90;;;;;;4925066;29;20458;-91
2022/08/16 06:25:41;;;;;;;9.53;8.53;;;26.10;1.00;;;;;;4929204;29;20438;-89
2022/08/16 06:28:09;;;;;;;12.20;9.77;;;26.20;99.90;;;;;;4928572;29;20213;-94
2022/08/16 06:30:34;;;;;;;9.47;8.47;;;26.60;99.90;;;;;;4928637;29;20217;-89
2022/08/16 06:33:02;;;;;;;8.50;7.70;;;26.40;1.00;;;;;;4927928;29;20427;-92
2022/08/16 06:35:28;;;;;;;11.00;9.90;;;26.60;1.00;;;;;;4933083;29;20179;-95
2022/08/16 06:37:53;;;;;;;9.93;8.90;;;26.80;90.40;;;;;;4949509;29;20425;-95
2022/08/16 06:40:19;;;;;;;13.20;7.80;;;27.10;99.90;;;;;;4953001;29;20189;-85
2022/08/16 06:42:45;;;;;;;8.70;7.37;;;27.10;99.90;;;;;;4956234;29;20178;-85
2022/08/16 06:45:10;;;;;;;7.90;7.20;;;27.10;99.90;;;;;;4952495;29;20177;-87
2022/08/16 06:47:36;;;;;;;7.43;6.63;;;25.20;1.00;;;;;;4949853;29;20188;-85
2022/08/16 06:50:02;;;;;;;8.87;7.33;;;24.00;1.00;;;;;;4948077;29;20221;-95
2022/08/16 06:52:31;;;;;;;8.00;7.20;;;23.40;99.90;;;;;;4947804;29;20177;-91
2022/08/16 06:54:57;;;;;;;9.93;8.90;;;23.20;99.90;;;;;;4945245;29;20417;-93
2022/08/16 06:57:22;;;;;;;8.90;8.00;;;23.30;99.90;;;;;;4944165;29;20477;-91
2022/08/16 06:59:48;;;;;;;9.13;7.83;;;23.40;99.90;;;;;;4922388;29;20666;-93
2022/08/16 07:02:13;;;;;;;9.70;8.70;;;23.60;99.90;;;;;;4921518;29;20184;-92
2022/08/16 07:04:41;;;;;;;8.97;8.10;;;23.90;99.90;;;;;;4921666;29;20182;-93
2022/08/16 07:07:06;;;;;;;9.50;7.83;;;23.80;99.90;;;;;;4921016;29;20260;-94
2022/08/16 07:09:32;;;;;;;9.93;7.70;;;23.90;99.90;;;;;;4922357;29;20422;-92
2022/08/16 07:11:58;;;;;;;8.47;7.47;;;23.90;99.90;;;;;;4939716;29;20212;-94
2022/08/16 07:14:23;;;;;;;6.67;6.07;;;24.00;58.20;;;;;;4939233;29;20682;-92
2022/08/16 07:16:49;;;;;;;8.60;7.03;;;24.10;56.10;;;;;;4939377;29;20209;-90
2022/08/16 07:19:15;;;;;;;7.90;6.20;;;25.40;1.00;;;;;;4922587;29;20180;-93
2022/08/16 07:21:41;;;;;;;6.73;6.07;;;25.80;99.90;;;;;;4932551;29;20529;-91
2022/08/16 07:24:07;;;;;;;7.30;6.50;;;26.00;1.00;;;;;;4911701;29;20413;-93
2022/08/16 07:26:32;;;;;;;7.80;7.00;;;25.50;7.80;;;;;;4938062;29;20224;-92
2022/08/16 07:28:59;;;;;;;7.60;5.63;;;25.60;99.90;;;;;;4920847;29;20619;-90
2022/08/16 07:31:24;;;;;;;7.63;6.40;;;25.00;99.90;;;;;;4937675;29;20209;-88
2022/08/16 07:33:50;;;;;;;6.30;5.70;;;24.50;1.00;;;;;;4937626;29;20421;-89
2022/08/16 07:36:15;;;;;;;8.33;6.43;;;25.00;99.90;;;;;;4937810;29;20260;-92
2022/08/16 07:38:42;;;;;;;5.83;4.50;;;26.10;1.00;;;;;;4925789;29;20180;-93
2022/08/16 07:41:08;;;;;;;7.50;6.00;;;25.40;1.00;;;;;;4943479;29;20240;-90
2022/08/16 07:43:34;;;;;;;5.50;4.80;;;25.00;1.00;;;;;;4942450;29;20413;-91
2022/08/16 07:46:00;;;;;;;7.83;6.30;;;25.00;1.00;;;;;;4941767;29;20421;-91
2022/08/16 07:48:25;;;;;;;5.13;4.63;;;25.50;1.00;;;;;;4943863;29;20170;-94
2022/08/16 07:50:52;;;;;;;6.03;5.30;;;26.80;1.00;;;;;;4941441;29;20213;-94
2022/08/16 07:53:18;;;;;;;5.07;4.43;;;26.00;19.30;;;;;;4943599;29;20174;-92
2022/08/16 07:55:44;;;;;;;5.23;4.20;;;28.30;1.00;;;;;;4927924;29;20457;-90
2022/08/16 07:58:10;;;;;;;6.37;5.00;;;29.70;99.90;;;;;;4922971;29;20465;-92
2022/08/16 08:00:36;;;;;;;6.63;5.40;;;30.00;99.90;;;;;;4920661;29;20182;-90
2022/08/16 08:03:02;;;;;;;4.53;4.13;;;30.10;99.90;;;;;;4920992;29;20919;-91
2022/08/16 08:05:28;;;;;;;5.57;5.17;;;30.30;99.90;;;;;;4923815;29;20522;-94
2022/08/16 08:07:55;;;;;;;5.53;4.53;;;30.20;99.90;;;;;;4922733;29;20555;-95
2022/08/16 08:10:22;;;;;;;5.67;5.17;;;30.20;99.90;;;;;;4938930;29;20206;-95
2022/08/16 08:12:52;;;;;;;7.63;6.07;;;30.80;99.90;;;;;;4937929;29;20429;-92
2022/08/16 08:15:19;;;;;;;4.83;4.37;;;29.60;99.90;;;;;;4939916;29;20576;-92
2022/08/16 08:17:44;;;;;;;6.90;6.17;;;30.40;99.90;;;;;;4941759;29;20941;-90
2022/08/16 08:20:13;;;;;;;5.47;4.97;;;30.80;99.90;;;;;;4924863;29;20425;-91
2022/08/16 08:22:39;;;;;;;5.93;5.33;;;29.30;99.90;;;;;;4940613;29;20189;-93
2022/08/16 08:25:06;;;;;;;5.43;5.03;;;28.70;99.90;;;;;;4940086;29;20501;-94
2022/08/16 08:27:33;;;;;;;5.50;4.93;;;28.70;99.90;;;;;;4938953;29;20254;-92
2022/08/16 08:29:58;;;;;;;5.73;5.23;;;28.70;99.90;;;;;;4939697;29;21084;-91
2022/08/16 08:32:27;;;;;;;6.17;5.57;;;29.10;99.90;;;;;;4924607;29;20460;-92
2022/08/16 08:34:57;;;;;;;7.10;5.60;;;29.60;99.90;;;;;;4924615;29;20281;-91
2022/08/16 08:37:24;;;;;;;5.50;5.03;;;29.00;99.90;;;;;;4944652;29;20569;-90
2022/08/16 08:39:50;;;;;;;6.13;5.40;;;28.10;1.00;;;;;;4945367;29;20461;-92
2022/08/16 08:42:16;;;;;;;6.20;4.80;;;27.70;1.00;;;;;;4944615;29;20437;-90
2022/08/16 08:44:41;;;;;;;4.57;4.13;;;27.90;1.00;;;;;;4945497;29;21059;-91
2022/08/16 08:47:08;;;;;;;5.33;4.87;;;28.40;1.00;;;;;;4945536;29;20190;-91
2022/08/16 08:49:36;;;;;;;5.57;5.03;;;29.30;99.90;;;;;;4944330;29;20174;-93
2022/08/16 08:52:02;;;;;;;6.00;5.50;;;30.00;99.90;;;;;;4946510;29;20785;-91
2022/08/16 08:54:29;;;;;;;4.20;3.53;;;30.40;99.90;;;;;;4945755;29;20446;-91
2022/08/16 08:56:56;;;;;;;4.73;4.23;;;31.40;99.90;;;;;;4944043;29;20437;-93
2022/08/16 08:59:22;;;;;;;4.43;4.03;;;32.10;99.90;;;;;;4944503;29;20809;-93
2022/08/16 09:01:49;;;;;;;5.07;4.67;;;32.00;99.90;;;;;;4946432;29;20910;-94
2022/08/16 09:04:15;;;;;;;4.83;4.43;;;31.80;95.30;;;;;;4945442;29;20429;-91
2022/08/16 09:06:41;;;;;;;4.83;4.43;;;32.40;98.70;;;;;;4946097;29;20421;-91
2022/08/16 09:09:08;;;;;;;5.07;4.57;;;32.50;76.70;;;;;;4946497;29;20182;-93
2022/08/16 09:11:35;;;;;;;4.87;4.47;;;32.90;58.20;;;;;;4946650;29;20476;-91
2022/08/16 09:14:03;;;;;;;3.80;3.40;;;33.10;43.40;;;;;;4945604;29;20484;-90
2022/08/16 09:16:31;;;;;;;4.60;4.30;;;33.20;37.70;;;;;;4944107;29;20418;-92
2022/08/16 09:18:59;;;;;;;4.87;4.43;;;33.20;41.90;;;;;;4942587;29;20437;-90
2022/08/16 09:21:25;;;;;;;4.10;3.80;;;33.20;30.60;;;;;;4943292;29;20413;-92
2022/08/16 09:23:51;;;;;;;4.60;4.20;;;32.70;28.00;;;;;;4927721;29;20501;-92
2022/08/16 09:26:17;;;;;;;3.73;3.43;;;33.20;23.30;;;;;;4944787;29;20417;-91
2022/08/16 09:28:44;;;;;;;4.93;4.57;;;33.60;35.00;;;;;;4942888;29;20920;-94
2022/08/16 09:31:11;;;;;;;4.00;3.70;;;33.50;18.40;;;;;;4942669;29;20222;-91
2022/08/16 09:33:37;;;;;;;3.70;3.30;;;33.20;16.50;;;;;;4942431;29;20429;-91
2022/08/16 09:36:03;;;;;;;5.43;5.03;;;33.60;16.70;;;;;;4938361;29;21009;-92
2022/08/16 09:38:29;;;;;;;3.30;2.90;;;34.00;12.20;;;;;;4943829;29;20442;-93
2022/08/16 09:40:56;;;;;;;4.20;3.90;;;33.90;5.80;;;;;;4925343;29;20422;-94
2022/08/16 09:43:24;;;;;;;4.83;4.40;;;33.90;5.90;;;;;;4906667;29;20414;-91
2022/08/16 09:45:50;;;;;;;4.40;4.03;;;34.10;4.70;;;;;;4922775;29;20418;-94
2022/08/16 09:48:16;;;;;;;4.97;4.30;;;34.10;4.10;;;;;;4922703;29;20415;-91
2022/08/16 09:50:43;;;;;;;4.87;4.47;;;33.70;1.00;;;;;;4924509;29;20540;-91
2022/08/16 09:53:21;;;;;;;4.27;3.97;;;33.90;3.20;;;;;;4907768;29;20175;-92
2022/08/16 09:55:49;;;;;;;4.20;3.80;;;34.30;3.30;;;;;;4904967;29;20425;-89
2022/08/16 09:58:26;;;;;;;3.60;3.30;;;34.00;1.00;;;;;;4915482;29;20515;-91
2022/08/16 10:00:53;;;;;;;4.53;4.23;;;34.30;1.00;;;;;;4948740;29;20495;-93
2022/08/16 10:03:19;;;;;;;4.20;3.90;;;34.00;1.00;;;;;;4944261;29;20460;-89
2022/08/16 10:05:46;;;;;;;4.13;3.83;;;34.30;1.00;;;;;;4958262;29;20479;-90
2022/08/16 10:08:12;;;;;;;4.17;3.87;;;34.00;1.00;;;;;;4960460;29;20512;-94
2022/08/16 10:10:41;;;;;;;4.43;3.97;;;33.00;1.00;;;;;;4949910;29;20508;-89
2022/08/16 10:13:13;;;;;;;4.47;4.07;;;31.60;1.00;;;;;;4940930;29;20796;-90
2022/08/16 10:15:45;;;;;;;3.90;3.60;;;31.40;6.60;;;;;;4926928;29;21001;-92
2022/08/16 10:18:12;;;;;;;4.83;3.20;;;31.40;11.10;;;;;;4925631;29;20477;-93
2022/08/16 10:20:41;;;;;;;3.63;3.43;;;31.70;9.40;;;;;;4923838;29;20434;-90
2022/08/16 10:23:09;;;;;;;4.00;3.70;;;31.60;5.70;;;;;;4924973;29;20417;-93
2022/08/16 10:25:43;;;;;;;4.13;3.83;;;30.70;9.20;;;;;;4939654;29;20436;-91
2022/08/16 10:28:09;;;;;;;4.37;4.07;;;31.70;31.00;;;;;;4926309;29;20429;-92
2022/08/16 10:30:36;;;;;;;3.80;3.50;;;32.70;9.70;;;;;;4939824;29;20484;-92
2022/08/16 10:33:02;;;;;;;3.80;3.50;;;33.50;3.30;;;;;;4937213;29;20188;-92
2022/08/16 10:35:28;;;;;;;3.70;3.40;;;34.10;1.00;;;;;;4937402;29;20443;-91
2022/08/16 10:37:53;;;;;;;3.30;3.10;;;34.10;1.00;;;;;;4939840;29;20504;-91
2022/08/16 10:40:25;;;;;;;4.00;3.70;;;34.30;1.00;;;;;;4932407;29;20336;-92
2022/08/16 10:42:51;;;;;;;3.40;3.20;;;34.80;1.00;;;;;;4923024;29;20192;-90
2022/08/16 10:45:17;;;;;;;4.80;3.50;;;35.00;1.00;;;;;;4919674;29;20421;-90
2022/08/16 10:47:43;;;;;;;3.47;3.27;;;35.10;1.00;;;;;;4920235;29;20173;-90
2022/08/16 10:50:09;;;;;;;3.30;2.83;;;34.00;1.00;;;;;;4919711;29;20476;-91
2022/08/16 10:52:38;;;;;;;3.30;3.00;;;33.70;1.00;;;;;;4936616;29;20231;-91
2022/08/16 10:55:07;;;;;;;3.70;3.17;;;33.20;1.00;;;;;;4919404;29;20520;-92
2022/08/16 10:57:32;;;;;;;2.43;2.23;;;33.50;1.00;;;;;;4934636;29;20438;-89
2022/08/16 10:59:58;;;;;;;3.47;2.90;;;34.10;1.00;;;;;;4918189;29;20429;-90
2022/08/16 11:02:24;;;;;;;2.80;2.60;;;34.20;1.00;;;;;;4928905;29;20183;-90
2022/08/16 11:04:51;;;;;;;3.40;2.97;;;34.10;1.00;;;;;;4934215;29;20596;-94
2022/08/16 11:07:16;;;;;;;2.87;2.60;;;34.10;1.00;;;;;;4914865;29;20477;-90
2022/08/16 11:09:42;;;;;;;3.43;3.00;;;34.60;1.00;;;;;;4934245;29;20444;-94
2022/08/16 11:12:08;;;;;;;2.80;2.60;;;34.60;1.00;;;;;;4920761;29;20193;-91
2022/08/16 11:14:35;;;;;;;2.50;2.30;;;34.20;1.00;;;;;;4937316;29;20181;-89
2022/08/16 11:17:02;;;;;;;3.63;3.40;;;34.80;1.00;;;;;;4921135;29;20635;-88
2022/08/16 11:19:29;;;;;;;3.40;3.10;;;34.30;1.00;;;;;;4936560;29;20852;-88
2022/08/16 11:21:55;;;;;;;3.07;2.87;;;34.00;1.00;;;;;;4937451;29;20428;-90
2022/08/16 11:24:21;;;;;;;2.67;2.33;;;34.50;1.00;;;;;;4925699;29;20417;-90
2022/08/16 11:26:47;;;;;;;2.87;2.60;;;34.90;1.00;;;;;;4935429;29;20413;-89
2022/08/16 11:29:13;;;;;;;3.57;3.27;;;35.00;1.00;;;;;;4934762;29;20879;-94
2022/08/16 11:31:42;;;;;;;3.17;2.97;;;35.00;1.00;;;;;;4927801;29;20473;-89
2022/08/16 11:34:08;;;;;;;3.27;2.97;;;35.10;1.00;;;;;;4952871;29;20276;-92
2022/08/16 11:36:35;;;;;;;3.43;3.23;;;34.70;1.00;;;;;;4937204;29;20481;-92
2022/08/16 11:39:01;;;;;;;3.73;3.43;;;34.80;1.00;;;;;;4936310;29;20480;-89
2022/08/16 11:41:27;;;;;;;3.27;2.97;;;35.20;1.00;;;;;;4931351;29;20446;-89
2022/08/16 11:43:53;;;;;;;3.00;2.80;;;34.90;1.00;;;;;;4933682;29;20177;-89
2022/08/16 11:46:20;;;;;;;3.23;3.00;;;35.10;1.00;;;;;;4936204;29;20520;-92
2022/08/16 11:48:47;;;;;;;3.07;2.80;;;35.00;1.00;;;;;;4928498;29;20185;-90
2022/08/16 11:51:12;;;;;;;3.00;2.80;;;35.30;1.00;;;;;;4918858;29;21325;-90
2022/08/16 11:53:38;;;;;;;3.30;3.10;;;35.40;1.00;;;;;;4919130;29;20476;-92
2022/08/16 11:56:04;;;;;;;2.83;2.53;;;34.20;1.00;;;;;;4935520;29;20184;-90
2022/08/16 11:58:30;;;;;;;2.93;2.73;;;32.80;1.00;;;;;;4918738;29;20178;-89
2022/08/16 12:00:57;;;;;;;2.73;2.53;;;31.90;1.00;;;;;;4935977;29;20725;-90
2022/08/16 12:03:30;;;;;;;3.70;3.40;;;31.30;1.00;;;;;;4918951;29;20421;-89
2022/08/16 12:05:56;;;;;;;3.17;2.97;;;31.30;1.00;;;;;;4922501;29;20456;-89
2022/08/16 12:08:22;;;;;;;3.27;2.97;;;31.70;1.00;;;;;;4923264;29;20422;-89
2022/08/16 12:10:48;;;;;;;2.87;2.67;;;32.00;1.00;;;;;;4926136;23;20500;-92
2022/08/16 12:13:14;;;;;;;2.77;2.53;;;31.70;1.00;;;;;;4948838;28;20527;-93
2022/08/16 12:15:40;;;;;;;2.50;2.30;;;31.60;1.00;;;;;;4955986;29;20460;-92
2022/08/16 12:18:07;;;;;;;1.80;1.70;;;32.00;1.00;;;;;;4955281;29;20500;-90
2022/08/16 12:20:35;;;;;;;2.30;1.73;;;30.90;1.00;;;;;;4937910;29;20433;-91
2022/08/16 12:23:02;;;;;;;2.20;1.70;;;30.30;1.00;;;;;;4938449;29;20479;-90
2022/08/16 12:25:30;;;;;;;2.10;1.90;;;30.20;1.00;;;;;;4953515;29;20993;-91
2022/08/16 12:27:56;;;;;;;2.27;1.90;;;30.20;1.00;;;;;;4938688;29;20428;-90
2022/08/16 12:30:27;;;;;;;3.90;2.60;;;30.50;1.00;;;;;;4938249;29;20915;-91
2022/08/16 12:32:53;;;;;;;2.30;2.10;;;30.40;1.00;;;;;;4937820;29;20438;-93
2022/08/16 12:35:20;;;;;;;3.37;2.37;;;29.60;1.00;;;;;;4954219;29;20425;-91
2022/08/16 12:37:47;;;;;;;3.27;2.63;;;29.20;10.20;;;;;;4955349;29;20504;-93
2022/08/16 12:40:52;;;;;;;3.73;2.23;;;28.70;9.70;;;;;;4967082;28;20438;-94
2022/08/16 12:43:40;;;;;;;2.57;2.33;;;28.80;25.20;;;;;;5565825;23;20478;-92
2022/08/16 12:46:07;;;;;;;2.77;2.50;;;29.00;99.90;;;;;;5028042;28;20929;-93